Terminal Aerodrome Forecast
Issued by NWS Louisville, KY

Home | Current Version | Previous Version | Text Only | Print | Product List | Glossary On
Versions: 1 2 3 4 5 6 7 8 9 10 11 12 13 14 15 16 17 18 19
669
FTUS43 KLMK 081728
TAFLEX
TAF
KLEX 081728Z 0818/0918 24009KT P6SM VCSH OVC025
     FM082100 26010KT 5SM -SHSN BR OVC015
      TEMPO 0901/0905 1SM -SHSN BR BKN008
     FM090600 27010KT P6SM VCSH OVC015=

USA.gov is the U.S. government's official web portal to all federal, state and local government web resources and services.